Pruszkow, Poland
Current Conditions -  °F | °C
As of 1:00 PM on Saturday 25 Oct 2014 (Local Time) from EPWA Reporting Station
Broken Clouds Broken Clouds  
Wind Chill: 26°   Ceiling: 2600
Heat Index: 36°   Visibility: 6mi
Dew Point: 28°   Wind: 15mph
Humidity: 75%   Direction: 130°SE
Pressure: 30.33"   Gusts: NA
Location:  52.22°N, 20.82°E
Report Text: EPWA 251100Z 13013KT 9999 FEW018 BKN026 02/M02 Q1027 NOSIG
Loading
Personal Weather Stations






























Interactive Weather Map
Tropical Storm Tracking
New forecast layout! Learn more

10-Day Weather Forecast

Advertisements
Track Severe Weather on mobile